• Join FlightAware (Why Join?)
  • Login
  • US Flag 
07:42AM EST


 

Airport Tracker/Info


-or-


 

Live Flight TrackerFlight Track Log ✈ DAL6055 ✈ 15-Apr-2013 ✈ KDTW - KSDF

Flight Track Log - Related Links

Times and Time Zones

All times are in EDT time to prevent confusion due to time zone crossing. See the DAL6055 flight status page for this flight to view local times or setup timezone preferences in your user account.

Time Position Orientation Groundspeed Altitude Reporting Facility
EDT Latitude Longitude Course Direction KTS MPH feet Rate Location/Type
09:14AM 42.1994 -83.3581 189° South 156 180 1,400  Level Cleveland Center
09:14AM 42.1556 -83.3675 189° South 189 217 3,200 1,980 Climbing Cleveland Center
09:15AM 42.1069 -83.3878 197° South 216 249 5,100 2,160 Climbing Cleveland Center
09:16AM 42.0461 -83.4100 195° South 231 266 7,400 2,040 Climbing Cleveland Center
09:18AM 41.9703 -83.4375 195° South 243 280 9,500 1,620 Climbing Cleveland Center
09:19AM 41.8997 -83.4206 170° South 277 319 10,900 1,260 Climbing Cleveland Center
09:20AM 41.8317 -83.3978 166° South 282 325 12,100 1,080 Climbing Cleveland Center
09:21AM 41.7447 -83.3661 165° South 303 349 13,100 1,200 Climbing Cleveland Center
09:22AM 41.6517 -83.3400 168° South 323 372 14,500 1,200 Climbing Cleveland Center
09:23AM 41.5578 -83.3386 179° South 336 387 15,500 960 Climbing Cleveland Center
09:24AM 41.4633 -83.3708 194° South 341 392 16,500 960 Climbing Cleveland Center
09:25AM 41.3722 -83.4250 204° Southwest 346 398 17,500 960 Climbing Cleveland Center
09:26AM 41.2792 -83.4761 202° Southwest 358 412 18,500 960 Climbing Cleveland Center
09:27AM 41.1839 -83.5325 204° Southwest 365 420 19,500 960 Climbing Cleveland Center
09:28AM 41.0800 -83.5942 204° Southwest 371 427 20,500 900 Climbing Cleveland Center
09:30AM 40.8519 -83.7242 203° Southwest 393 452 22,600 1,020 Climbing Indianapolis Center
09:31AM 40.7503 -83.7814 203° Southwest 394 453 24,000 1,080 Climbing Indianapolis Center
09:32AM 40.6511 -83.8372 203° Southwest 386 444 24,900 840 Climbing Indianapolis Center
09:33AM 40.5328 -83.9050 204° Southwest 394 453 25,800 480 Climbing Indianapolis Center
09:34AM 40.4294 -83.9633 203° Southwest 401 461 26,000 60 Climbing Indianapolis Center
09:35AM 40.3233 -84.0239 204° Southwest 412 474 26,000  Level Indianapolis Center
09:36AM 40.2119 -84.0833 202° Southwest 426 490 26,000  Level Indianapolis Center
09:37AM 40.0997 -84.1433 202° Southwest 432 497 26,000  Level Indianapolis Center
09:38AM 39.9853 -84.2028 202° Southwest 438 504 26,000  Level Indianapolis Center
09:39AM 39.8531 -84.2728 202° Southwest 438 504 26,000  Level Indianapolis Center
09:40AM 39.7394 -84.3322 202° Southwest 439 505 26,000  Level Indianapolis Center
09:41AM 39.6236 -84.3914 201° Southwest 442 509 26,000 -540 Level Indianapolis Center
09:42AM 39.5092 -84.4511 202° Southwest 440 506 25,000 -1,020 Descending Indianapolis Center
09:43AM 39.3917 -84.5108 201° Southwest 447 514 24,000 -900 Descending Indianapolis Center
09:44AM 39.2775 -84.5686 201° Southwest 442 509 23,200 -1,260 Descending Indianapolis Center
09:45AM 39.1683 -84.6264 202° Southwest 428 493 21,400 -2,040 Descending Indianapolis Center
09:46AM 39.0833 -84.6667 200° South 420 483 20,000 -2,220 Descending Cincinnati TRACON
09:47AM 39.0000 -84.7167 205° Southwest 421 484 18,400 -1,920 Descending Cincinnati TRACON
09:48AM 38.9167 -84.8000 218° Southwest 391 450 16,600 -1,980 Descending Cincinnati TRACON
09:49AM 38.8489 -84.8647 217° Southwest 400 460 15,100 -1,860 Descending Indianapolis Center
09:50AM 38.7769 -84.9356 218° Southwest 358 412 13,400 -1,440 Descending Indianapolis Center
09:51AM 38.6969 -85.0125 217° Southwest 350 403 12,200 -720 Descending Indianapolis Center
09:52AM 38.6114 -85.0942 217° Southwest 367 422 12,000 -240 Descending Indianapolis Center
09:53AM 38.4883 -85.2111 217° Southwest 350 403 11,600 -420 Descending FAA TRACON SMA TRACON (SMA)
09:53AM 38.4664 -85.2317 216° Southwest 330 380 11,300 -1,080 Descending FAA TRACON SMA TRACON (SMA)
09:54AM 38.4411 -85.2569 218° Southwest 307 353 10,900 -1,260 Descending FAA TRACON SMA TRACON (SMA)
09:54AM 38.4217 -85.2753 216° Southwest 291 335 10,500 -1,380 Descending FAA TRACON SMA TRACON (SMA)
09:54AM 38.4025 -85.2933 216° Southwest 280 322 10,000 -1,800 Descending FAA TRACON SMA TRACON (SMA)
09:55AM 38.3789 -85.3150 216° Southwest 273 314 9,300 -1,980 Descending FAA TRACON SMA TRACON (SMA)
09:55AM 38.3608 -85.3331 218° Southwest 268 308 8,700 -1,560 Descending FAA TRACON SMA TRACON (SMA)
09:56AM 38.3422 -85.3497 215° Southwest 265 305 8,200 -1,680 Descending FAA TRACON SMA TRACON (SMA)
09:56AM 38.3203 -85.3719 218° Southwest 263 303 7,500 -2,160 Descending FAA TRACON SMA TRACON (SMA)
09:56AM 38.3019 -85.3886 216° Southwest 262 302 6,900 -1,800 Descending FAA TRACON SMA TRACON (SMA)
09:56AM 38.2844 -85.4053 217° Southwest 259 298 6,400 -1,380 Descending FAA TRACON SMA TRACON (SMA)
09:57AM 38.2625 -85.4258 216° Southwest 255 293 6,000 -600 Descending FAA TRACON SMA TRACON (SMA)
09:57AM 38.2453 -85.4422 217° Southwest 250 288 6,000  Level FAA TRACON SMA TRACON (SMA)
09:57AM 38.2283 -85.4581 216° Southwest 248 285 6,000  Level FAA TRACON SMA TRACON (SMA)
09:58AM 38.2075 -85.4781 217° Southwest 246 283 6,000  Level FAA TRACON SMA TRACON (SMA)
09:58AM 38.1903 -85.4939 216° Southwest 246 283 6,000  Level FAA TRACON SMA TRACON (SMA)
09:58AM 38.1733 -85.5100 217° Southwest 247 284 6,000  Level FAA TRACON SMA TRACON (SMA)
09:59AM 38.1519 -85.5300 216° Southwest 247 284 6,000  Level FAA TRACON SMA TRACON (SMA)
09:59AM 38.1347 -85.5461 216° Southwest 248 285 6,000  Level FAA TRACON SMA TRACON (SMA)
09:59AM 38.1178 -85.5622 217° Southwest 249 287 6,000 -600 Level FAA TRACON SMA TRACON (SMA)
10:00AM 38.0992 -85.5747 208° Southwest 250 288 5,600 -1,680 Descending FAA TRACON SMA TRACON (SMA)
10:00AM 38.0739 -85.5700 172° South 248 285 4,900 -1,860 Descending FAA TRACON SMA TRACON (SMA)
10:01AM 38.0536 -85.5628 164° South 245 282 4,300 -1,680 Descending FAA TRACON SMA TRACON (SMA)
10:01AM 38.0283 -85.5542 165° South 243 280 3,700 -1,860 Descending FAA TRACON SMA TRACON (SMA)
10:01AM 38.0089 -85.5583 190° South 245 282 3,200 -1,140 Descending FAA TRACON SMA TRACON (SMA)
10:01AM 37.9981 -85.5781 235° Southwest 248 285 3,000 -480 Descending FAA TRACON SMA TRACON (SMA)
10:02AM 38.0006 -85.6025 277° West 241 277 2,900  Descending FAA TRACON SMA TRACON (SMA)
10:02AM 38.0128 -85.6317 298° West 243 280 3,000 120 Climbing FAA TRACON SMA TRACON (SMA)
10:02AM 38.0242 -85.6544 302° West 246 283 3,000 -180 Level FAA TRACON SMA TRACON (SMA)
10:03AM 38.0428 -85.6750 319° Northwest 234 269 2,900 -600 Descending FAA TRACON SMA TRACON (SMA)
10:03AM 38.0583 -85.6861 331° Northwest 217 250 2,600 -900 Descending FAA TRACON SMA TRACON (SMA)
10:03AM 38.0742 -85.6922 343° North 198 228 2,300 -780 Descending FAA TRACON SMA TRACON (SMA)
10:04AM 38.0883 -85.6969 345° North 176 203 2,100 -900 Descending FAA TRACON SMA TRACON (SMA)
10:04AM 38.1044 -85.7033 343° North 160 184 1,700 -1,080 Descending FAA TRACON SMA TRACON (SMA)
10:04AM 38.1175 -85.7075 346° North 155 178 1,400 -780 Descending FAA TRACON SMA TRACON (SMA)
10:05AM 38.1300 -85.7119 344° North 153 176 1,200 -780 Descending FAA TRACON SMA TRACON (SMA)
10:05AM 38.1456 -85.7172 345° North 151 174 900 -900 Descending FAA TRACON SMA TRACON (SMA)
10:05AM 38.1583 -85.7214 346° North 152 175 600 -900 Descending FAA TRACON SMA TRACON (SMA)